createdAt,value
2019-06-20T00:01:52.647Z,68.80
2019-06-20T00:04:19.015Z,73.23
2019-06-20T00:06:45.130Z,66.07
2019-06-20T00:09:11.340Z,72.13
2019-06-20T00:11:37.617Z,65.20
2019-06-20T00:14:03.933Z,72.60
2019-06-20T00:16:30.139Z,72.93
2019-06-20T00:18:56.272Z,67.80
2019-06-20T00:21:22.532Z,73.37
2019-06-20T00:23:49.135Z,67.20
2019-06-20T00:26:15.358Z,66.30
2019-06-20T00:28:41.557Z,71.50
2019-06-20T00:31:07.687Z,69.37
2019-06-20T00:33:33.918Z,66.87
2019-06-20T00:36:00.020Z,71.27
2019-06-20T00:38:26.119Z,73.03
2019-06-20T00:40:52.262Z,74.70
2019-06-20T00:43:18.596Z,78.33
2019-06-20T00:45:44.779Z,71.80
2019-06-20T00:48:11.020Z,79.40
2019-06-20T00:50:37.129Z,82.80
2019-06-20T00:53:03.366Z,84.77
2019-06-20T00:55:29.738Z,78.30
2019-06-20T00:57:55.850Z,77.83
2019-06-20T01:00:22.082Z,84.70
2019-06-20T01:02:48.325Z,90.07
2019-06-20T01:05:14.748Z,82.10
2019-06-20T01:07:40.936Z,85.47
2019-06-20T01:10:08.377Z,85.03
2019-06-20T01:12:34.680Z,87.43
2019-06-20T01:15:00.856Z,73.07
2019-06-20T01:17:27.031Z,79.50
2019-06-20T01:19:53.241Z,72.70
2019-06-20T01:22:19.457Z,70.00
2019-06-20T01:24:45.687Z,75.23
2019-06-20T01:27:11.889Z,75.00
2019-06-20T01:29:38.104Z,65.43
2019-06-20T01:32:04.681Z,69.07
2019-06-20T01:34:30.782Z,72.33
2019-06-20T01:36:56.981Z,71.03
2019-06-20T01:39:23.231Z,71.50
2019-06-20T01:41:49.543Z,68.80
2019-06-20T01:44:15.658Z,70.60
2019-06-20T01:46:41.893Z,65.43
2019-06-20T01:49:08.013Z,62.17
2019-06-20T01:51:34.334Z,63.57
2019-06-20T01:54:00.678Z,56.27
2019-06-20T01:56:27.257Z,57.60
2019-06-20T01:58:53.456Z,59.43
2019-06-20T02:01:19.712Z,53.47
2019-06-20T02:03:45.911Z,52.67
2019-06-20T02:06:12.223Z,61.70
2019-06-20T02:08:38.609Z,53.10
2019-06-20T02:11:04.835Z,54.20
2019-06-20T02:13:31.033Z,51.20
2019-06-20T02:15:57.264Z,52.87
2019-06-20T02:18:23.467Z,53.53
2019-06-20T02:20:52.381Z,52.73
2019-06-20T02:23:19.426Z,55.70
2019-06-20T02:25:45.721Z,52.00
2019-06-20T02:28:11.954Z,53.33
2019-06-20T02:30:38.123Z,55.23
2019-06-20T02:33:04.423Z,50.23
2019-06-20T02:35:30.937Z,53.17
2019-06-20T02:37:57.317Z,52.50
2019-06-20T02:40:23.742Z,49.03
2019-06-20T02:42:49.941Z,48.40
2019-06-20T02:45:17.185Z,47.37
2019-06-20T02:47:43.550Z,49.23
2019-06-20T02:50:10.800Z,51.77
2019-06-20T02:52:37.259Z,53.23
2019-06-20T02:55:03.864Z,53.47
2019-06-20T02:57:30.468Z,44.77
2019-06-20T02:59:56.858Z,46.03
2019-06-20T03:02:23.072Z,46.77
2019-06-20T03:04:49.281Z,46.73
2019-06-20T03:07:15.529Z,44.67
2019-06-20T03:09:41.652Z,56.47
2019-06-20T03:12:07.827Z,49.80
2019-06-20T03:14:45.121Z,49.17
2019-06-20T03:17:02.107Z,51.07
2019-06-20T03:19:28.342Z,46.77
2019-06-20T03:21:54.578Z,52.73
2019-06-20T03:24:20.690Z,52.43
2019-06-20T03:26:46.780Z,54.13
2019-06-20T03:29:13.039Z,50.40
2019-06-20T03:31:39.155Z,51.37
2019-06-20T03:34:05.337Z,56.30
2019-06-20T03:36:31.492Z,49.63
2019-06-20T03:38:57.582Z,54.03
2019-06-20T03:41:23.693Z,53.57
2019-06-20T03:43:49.849Z,48.30
2019-06-20T03:46:16.066Z,49.27
2019-06-20T03:48:42.191Z,53.90
2019-06-20T03:51:08.551Z,50.67
2019-06-20T03:53:34.751Z,46.80
2019-06-20T03:56:00.846Z,47.77
2019-06-20T03:58:27.042Z,43.83
2019-06-20T04:00:53.243Z,48.17
2019-06-20T04:03:19.425Z,45.33
2019-06-20T04:05:45.589Z,47.07
2019-06-20T04:08:11.784Z,46.27
2019-06-20T04:10:37.902Z,41.20
2019-06-20T04:13:04.232Z,39.00
2019-06-20T04:15:30.526Z,35.87
2019-06-20T04:17:56.724Z,37.60
2019-06-20T04:20:22.982Z,41.67
2019-06-20T04:22:49.182Z,36.80
2019-06-20T04:25:15.300Z,38.10
2019-06-20T04:27:41.536Z,31.97
2019-06-20T04:30:07.752Z,38.60
2019-06-20T04:32:33.856Z,37.57
2019-06-20T04:35:00.121Z,36.37
2019-06-20T04:37:26.310Z,38.23
2019-06-20T04:39:52.416Z,34.87
2019-06-20T04:42:18.939Z,37.20
2019-06-20T04:44:45.419Z,40.63
2019-06-20T04:47:12.729Z,38.33
2019-06-20T04:49:39.112Z,37.30
2019-06-20T04:52:05.316Z,44.40
2019-06-20T04:54:31.427Z,34.83
2019-06-20T04:56:57.797Z,40.47
2019-06-20T04:59:24.070Z,38.13
2019-06-20T05:01:50.218Z,42.77
2019-06-20T05:04:16.444Z,41.50
2019-06-20T05:06:46.462Z,41.30
2019-06-20T05:09:12.663Z,37.30
2019-06-20T05:11:38.834Z,39.90
2019-06-20T05:14:05.111Z,42.50
2019-06-20T05:16:31.317Z,41.00
2019-06-20T05:18:57.576Z,45.67
2019-06-20T05:21:23.675Z,39.17
2019-06-20T05:23:49.903Z,43.73
2019-06-20T05:26:16.150Z,47.13
2019-06-20T05:28:42.251Z,41.57
2019-06-20T05:31:08.465Z,41.37
2019-06-20T05:33:34.737Z,38.00
2019-06-20T05:36:00.945Z,39.17
2019-06-20T05:38:27.166Z,36.93
2019-06-20T05:40:53.431Z,43.00
2019-06-20T05:43:19.546Z,36.10
2019-06-20T05:45:48.651Z,36.13
2019-06-20T05:48:13.731Z,36.43
2019-06-20T05:50:40.100Z,37.00
2019-06-20T05:53:06.300Z,37.27
2019-06-20T05:55:32.959Z,39.33
2019-06-20T05:57:59.204Z,38.57
2019-06-20T06:00:25.815Z,36.80
2019-06-20T06:02:52.069Z,40.67
2019-06-20T06:05:18.349Z,35.57
2019-06-20T06:07:44.454Z,32.53
2019-06-20T06:10:11.119Z,35.93
2019-06-20T06:12:37.221Z,34.70
2019-06-20T06:15:06.426Z,30.97
2019-06-20T06:17:33.512Z,32.40
2019-06-20T06:19:59.642Z,30.70
2019-06-20T06:22:26.720Z,26.67
2019-06-20T06:24:52.891Z,27.27
2019-06-20T06:27:19.396Z,31.60
2019-06-20T06:29:45.610Z,32.20
2019-06-20T06:32:11.865Z,30.23
2019-06-20T06:34:37.979Z,35.00
2019-06-20T06:37:04.104Z,35.00
2019-06-20T06:39:30.428Z,40.70
2019-06-20T06:41:56.570Z,37.07
2019-06-20T06:44:22.783Z,37.20
2019-06-20T06:46:55.505Z,38.23
2019-06-20T06:49:17.042Z,36.83
2019-06-20T06:51:43.560Z,41.90
2019-06-20T06:54:09.721Z,38.27
2019-06-20T06:56:35.957Z,39.53
2019-06-20T06:59:02.150Z,36.33
2019-06-20T07:01:28.985Z,34.77
2019-06-20T07:03:55.211Z,35.03
2019-06-20T07:06:21.521Z,28.53
2019-06-20T07:08:47.757Z,31.70
2019-06-20T07:11:13.983Z,32.17
2019-06-20T07:13:40.206Z,29.00
2019-06-20T07:16:06.612Z,30.63
2019-06-20T07:18:32.784Z,31.27
2019-06-20T07:20:58.885Z,29.50
2019-06-20T07:23:25.050Z,27.47
2019-06-20T07:25:51.292Z,28.63
2019-06-20T07:28:17.471Z,25.70
2019-06-20T07:30:43.667Z,29.90
2019-06-20T07:33:09.812Z,30.83
2019-06-20T07:35:36.028Z,26.63
2019-06-20T07:38:02.248Z,25.73
2019-06-20T07:40:28.424Z,26.50
2019-06-20T07:42:54.635Z,21.20
2019-06-20T07:45:27.388Z,24.33
2019-06-20T07:47:53.391Z,23.80
2019-06-20T07:50:19.787Z,25.70
2019-06-20T07:53:00.881Z,23.70
2019-06-20T07:55:14.263Z,24.17
2019-06-20T07:57:40.483Z,25.47
2019-06-20T08:00:08.929Z,20.83
2019-06-20T08:05:20.922Z,22.93
2019-06-20T08:07:47.141Z,22.57
2019-06-20T08:10:14.623Z,19.33
2019-06-20T08:12:41.213Z,20.43
2019-06-20T08:15:15.178Z,21.10
2019-06-20T08:17:36.376Z,24.37
2019-06-20T08:20:05.331Z,20.10
2019-06-20T08:22:31.555Z,17.67
2019-06-20T08:24:58.950Z,16.83
2019-06-20T08:27:43.603Z,21.07
2019-06-20T08:30:10.017Z,18.93
2019-06-20T08:32:36.126Z,11.73
2019-06-20T08:35:04.780Z,13.17
2019-06-20T08:37:31.004Z,14.47
2019-06-20T08:39:58.381Z,10.67
2019-06-20T08:42:24.678Z,8.17
2019-06-20T08:44:50.883Z,7.97
2019-06-20T08:47:17.069Z,9.27
2019-06-20T08:49:43.197Z,10.30
2019-06-20T08:52:09.479Z,6.60
2019-06-20T08:54:35.697Z,7.50
2019-06-20T08:57:04.002Z,9.07
2019-06-20T08:59:30.071Z,8.37
2019-06-20T09:01:58.686Z,8.40
2019-06-20T09:04:24.736Z,9.23
2019-06-20T09:06:51.008Z,10.80
2019-06-20T09:09:17.139Z,11.70
2019-06-20T09:11:43.362Z,9.70
2019-06-20T09:14:09.483Z,10.67
2019-06-20T09:16:35.681Z,15.47
2019-06-20T09:19:02.597Z,8.03
2019-06-20T09:21:29.122Z,8.50
2019-06-20T09:23:55.718Z,9.67
2019-06-20T09:26:21.996Z,11.27
2019-06-20T09:28:48.200Z,10.67
2019-06-20T09:31:14.390Z,12.20
2019-06-20T09:33:40.565Z,16.30
2019-06-20T09:36:06.784Z,13.13
2019-06-20T09:38:32.918Z,12.37
2019-06-20T09:40:59.438Z,14.33
2019-06-20T09:43:27.818Z,12.67
2019-06-20T09:45:54.511Z,14.07
2019-06-20T09:48:20.835Z,14.17
2019-06-20T09:50:49.399Z,14.23
2019-06-20T09:53:15.161Z,14.10
2019-06-20T09:55:41.397Z,14.63
2019-06-20T09:58:07.629Z,13.90
2019-06-20T10:00:34.457Z,11.37
2019-06-20T10:03:00.710Z,12.07
2019-06-20T10:05:26.949Z,13.20
2019-06-20T10:07:54.502Z,18.80
2019-06-20T10:10:24.666Z,15.37
2019-06-20T10:12:51.761Z,10.80
2019-06-20T10:15:32.160Z,12.57
2019-06-20T10:17:58.654Z,18.33
2019-06-20T10:20:25.193Z,14.57
2019-06-20T10:22:53.044Z,17.43
2019-06-20T10:25:20.081Z,13.43
2019-06-20T10:27:48.308Z,13.80
2019-06-20T10:30:16.650Z,13.33
2019-06-20T10:32:45.201Z,13.87
2019-06-20T10:35:13.007Z,13.93
2019-06-20T10:37:39.799Z,16.37
2019-06-20T10:40:06.833Z,15.73
2019-06-20T10:42:33.783Z,14.33
2019-06-20T10:45:00.345Z,14.93
2019-06-20T10:47:33.705Z,12.23
2019-06-20T10:49:56.597Z,17.93
2019-06-20T10:52:23.147Z,14.63
2019-06-20T10:54:51.401Z,11.23
2019-06-20T10:57:17.922Z,13.60
2019-06-20T10:59:46.434Z,15.07
2019-06-20T11:02:12.963Z,18.20
2019-06-20T11:04:40.526Z,12.67
2019-06-20T11:07:08.394Z,12.07
2019-06-20T11:09:34.873Z,11.43
2019-06-20T11:12:01.272Z,11.93
2019-06-20T11:14:27.745Z,15.27
2019-06-20T11:16:54.269Z,16.73
2019-06-20T11:19:20.714Z,12.87
2019-06-20T11:21:47.689Z,11.27
2019-06-20T11:24:14.209Z,10.77
2019-06-20T11:26:41.112Z,12.43
2019-06-20T11:29:07.551Z,15.67
2019-06-20T11:31:33.753Z,12.43
2019-06-20T11:33:59.879Z,15.90
2019-06-20T11:36:26.402Z,21.13
2019-06-20T11:38:53.137Z,13.83
2019-06-20T11:41:19.853Z,16.87
2019-06-20T11:43:46.868Z,16.13
2019-06-20T11:46:13.503Z,17.63
2019-06-20T11:48:40.574Z,19.43
2019-06-20T11:51:08.030Z,16.13
2019-06-20T11:53:36.449Z,17.93
2019-06-20T11:56:04.542Z,17.87
2019-06-20T11:58:31.056Z,17.27
2019-06-20T12:01:03.606Z,17.70
2019-06-20T12:03:26.302Z,18.07
2019-06-20T12:05:52.846Z,17.00
2019-06-20T12:08:19.352Z,19.53
2019-06-20T12:10:47.211Z,19.93
2019-06-20T12:13:13.745Z,19.57
2019-06-20T12:15:41.683Z,19.83
2019-06-20T12:18:08.198Z,23.33
2019-06-20T12:20:34.544Z,23.17
2019-06-20T12:23:00.902Z,16.87
2019-06-20T12:25:28.373Z,17.43
2019-06-20T12:27:54.803Z,18.57
2019-06-20T12:30:25.015Z,24.10
2019-06-20T12:32:51.389Z,21.63
2019-06-20T12:35:19.411Z,21.63
2019-06-20T12:37:45.770Z,22.77
2019-06-20T12:40:14.502Z,20.37
2019-06-20T12:42:41.776Z,22.07
2019-06-20T12:45:09.915Z,18.00
2019-06-20T12:47:38.283Z,17.10
2019-06-20T12:50:06.436Z,23.07
2019-06-20T12:52:32.827Z,18.33
2019-06-20T12:54:59.633Z,19.30
2019-06-20T12:57:27.365Z,23.00
2019-06-20T12:59:53.843Z,21.33
2019-06-20T13:02:20.204Z,17.90
2019-06-20T13:04:47.061Z,8.47
2019-06-20T13:07:14.666Z,17.53
2019-06-20T13:09:42.316Z,9.77
2019-06-20T13:12:10.784Z,16.17
2019-06-20T13:14:39.244Z,11.97
2019-06-20T13:17:07.792Z,16.60
2019-06-20T13:19:34.376Z,15.67
2019-06-20T13:22:01.674Z,12.87
2019-06-20T13:24:27.888Z,11.97
2019-06-20T13:26:54.271Z,9.63
2019-06-20T13:29:20.487Z,8.30
2019-06-20T13:31:59.342Z,9.83
2019-06-20T13:34:14.763Z,9.43
2019-06-20T13:36:41.285Z,10.57
2019-06-20T13:39:08.679Z,10.43
2019-06-20T13:41:34.831Z,9.87
2019-06-20T13:44:02.544Z,7.07
2019-06-20T13:46:28.750Z,10.13
2019-06-20T13:48:55.004Z,9.47
2019-06-20T13:51:21.104Z,9.00
2019-06-20T13:53:48.592Z,9.07
2019-06-20T13:56:14.865Z,11.07
2019-06-20T13:58:42.246Z,7.17
2019-06-20T14:01:08.534Z,10.47
2019-06-20T14:03:35.181Z,10.60
2019-06-20T14:06:01.919Z,8.00
2019-06-20T14:08:28.270Z,8.53
2019-06-20T14:10:54.968Z,13.70
2019-06-20T14:13:21.271Z,9.57
2019-06-20T14:15:48.564Z,13.97
2019-06-20T14:18:15.631Z,9.77
2019-06-20T14:20:43.643Z,12.37
2019-06-20T14:23:10.740Z,11.27
2019-06-20T14:25:37.173Z,10.30
2019-06-20T14:28:03.433Z,8.90
2019-06-20T14:30:30.005Z,8.67
2019-06-20T14:32:56.178Z,15.70
2019-06-20T14:35:23.032Z,9.17
2019-06-20T14:37:51.425Z,11.47
2019-06-20T14:40:18.490Z,13.60
2019-06-20T14:42:45.935Z,8.50
2019-06-20T14:45:13.275Z,12.00
2019-06-20T14:47:39.919Z,9.83
2019-06-20T14:50:08.377Z,8.77
2019-06-20T14:52:35.703Z,11.47
2019-06-20T14:55:04.253Z,8.10
2019-06-20T14:57:30.430Z,14.23
2019-06-20T14:59:56.541Z,11.70
2019-06-20T15:02:34.612Z,10.87
2019-06-20T15:04:52.513Z,11.90
2019-06-20T15:07:18.763Z,13.50
2019-06-20T15:09:46.282Z,14.63
2019-06-20T15:12:13.246Z,12.43
2019-06-20T15:14:39.856Z,12.87
2019-06-20T15:17:07.150Z,22.37
2019-06-20T15:19:33.581Z,15.53
2019-06-20T15:21:59.759Z,16.60
2019-06-20T15:24:26.116Z,12.57
2019-06-20T15:26:52.687Z,16.73
2019-06-20T15:29:19.550Z,18.30
2019-06-20T15:31:47.656Z,17.67
2019-06-20T15:34:14.315Z,15.63
2019-06-20T15:36:41.272Z,14.13
2019-06-20T15:39:08.388Z,10.10
2019-06-20T15:41:34.835Z,17.70
2019-06-20T15:44:01.412Z,7.63
2019-06-20T15:46:30.525Z,15.90
2019-06-20T15:48:59.809Z,9.53
2019-06-20T15:51:25.360Z,18.33
2019-06-20T15:53:52.146Z,12.97
2019-06-20T15:56:18.921Z,13.00
2019-06-20T15:58:45.765Z,23.07
2019-06-20T16:01:12.486Z,23.10
2019-06-20T16:03:39.119Z,16.63
2019-06-20T16:06:06.272Z,10.20
2019-06-20T16:08:32.667Z,20.63
2019-06-20T16:10:59.353Z,22.17
2019-06-20T16:13:25.804Z,16.23
2019-06-20T16:15:53.138Z,16.27
2019-06-20T16:18:19.719Z,17.70
2019-06-20T16:20:46.200Z,14.27
2019-06-20T16:23:12.959Z,17.20
2019-06-20T16:25:39.669Z,17.17
2019-06-20T16:28:06.489Z,16.43
2019-06-20T16:30:33.735Z,19.70
2019-06-20T16:33:00.641Z,13.90
2019-06-20T16:35:26.794Z,21.93
2019-06-20T16:37:53.176Z,14.27
2019-06-20T16:40:41.202Z,13.23
2019-06-20T16:43:07.988Z,8.90
2019-06-20T16:45:34.180Z,18.23
2019-06-20T16:48:01.070Z,13.63
2019-06-20T16:50:27.627Z,17.10
2019-06-20T16:52:54.275Z,13.30
2019-06-20T16:55:20.785Z,10.60
2019-06-20T16:57:47.029Z,16.03
2019-06-20T17:00:14.069Z,17.87
2019-06-20T17:02:40.694Z,14.33
2019-06-20T17:05:07.828Z,11.23
2019-06-20T17:07:34.591Z,9.47
2019-06-20T17:10:02.531Z,13.53
2019-06-20T17:12:29.281Z,13.73
2019-06-20T17:14:55.645Z,19.93
2019-06-20T17:17:22.689Z,19.13
2019-06-20T17:19:48.940Z,8.80
2019-06-20T17:22:15.457Z,15.17
2019-06-20T17:24:41.882Z,11.83
2019-06-20T17:27:08.379Z,10.27
2019-06-20T17:29:34.698Z,12.97
2019-06-20T17:32:01.188Z,15.13
2019-06-20T17:34:27.796Z,10.90
2019-06-20T17:36:54.536Z,7.63
2019-06-20T17:39:20.950Z,10.93
2019-06-20T17:41:55.237Z,12.30
2019-06-20T17:44:15.749Z,7.77
2019-06-20T17:46:42.046Z,9.67
2019-06-20T17:49:08.791Z,7.43
2019-06-20T17:51:35.064Z,9.77
2019-06-20T17:54:01.381Z,7.00
2019-06-20T17:56:27.707Z,12.60
2019-06-20T17:58:54.495Z,11.17
2019-06-20T18:01:20.752Z,9.40
2019-06-20T18:03:47.543Z,6.43
2019-06-20T18:06:14.213Z,8.90
2019-06-20T18:08:40.814Z,6.83
2019-06-20T18:11:07.726Z,10.30
2019-06-20T18:13:34.676Z,7.67
2019-06-20T18:16:01.072Z,10.83
2019-06-20T18:18:27.785Z,7.70
2019-06-20T18:20:54.152Z,8.87
2019-06-20T18:23:21.043Z,8.37
2019-06-20T18:25:50.790Z,6.13
2019-06-20T18:28:22.201Z,5.33
2019-06-20T18:30:52.335Z,7.10
2019-06-20T18:33:37.999Z,4.93
2019-06-20T18:36:08.888Z,10.57
2019-06-20T18:38:41.509Z,5.93
2019-06-20T18:41:10.548Z,6.67
2019-06-20T18:43:40.024Z,15.13
2019-06-20T18:46:12.338Z,7.77
2019-06-20T18:48:40.774Z,9.27
2019-06-20T18:51:07.082Z,9.67
2019-06-20T18:53:35.959Z,9.23
2019-06-20T18:56:05.705Z,8.10
2019-06-20T18:58:36.214Z,9.10
2019-06-20T19:01:06.073Z,6.27
2019-06-20T19:03:32.650Z,10.10
2019-06-20T19:06:02.627Z,9.63
2019-06-20T19:08:33.729Z,10.70
2019-06-20T19:11:00.181Z,8.53
2019-06-20T19:13:31.664Z,10.03
2019-06-20T19:16:01.816Z,12.93
2019-06-20T19:18:31.070Z,11.90
2019-06-20T19:21:00.515Z,7.77
2019-06-20T19:23:30.433Z,14.70
2019-06-20T19:25:59.449Z,11.93
2019-06-20T19:28:25.986Z,10.27
2019-06-20T19:30:55.884Z,10.50
2019-06-20T19:33:26.803Z,14.53
2019-06-20T19:35:53.422Z,10.43
2019-06-20T19:38:25.264Z,13.77
2019-06-20T19:40:55.227Z,9.07
2019-06-20T19:43:29.487Z,9.97
2019-06-20T19:45:58.563Z,11.93
2019-06-20T19:51:24.451Z,10.53
2019-06-20T19:53:55.223Z,7.33
2019-06-20T19:56:22.588Z,3.67
2019-06-20T19:58:52.022Z,5.33
2019-06-20T20:01:21.401Z,7.43
2019-06-20T20:03:48.420Z,3.43
2019-06-20T20:06:14.790Z,4.10
2019-06-20T20:08:45.354Z,4.00
2019-06-20T20:11:20.330Z,3.70
2019-06-20T20:13:47.610Z,10.63
2019-06-20T20:16:14.506Z,5.60
2019-06-20T20:18:41.550Z,9.97
2019-06-20T20:21:09.206Z,8.13
2019-06-20T20:23:36.340Z,6.53
2019-06-20T20:26:03.443Z,9.23
2019-06-20T20:28:30.437Z,4.20
2019-06-20T20:30:57.278Z,6.23
2019-06-20T20:33:24.312Z,4.10
2019-06-20T20:35:54.745Z,4.30
2019-06-20T20:38:21.591Z,7.20
2019-06-20T20:40:48.995Z,2.97
2019-06-20T20:43:16.264Z,5.33
2019-06-20T20:45:43.622Z,7.60
2019-06-20T20:48:10.748Z,4.27
2019-06-20T20:50:40.985Z,4.87
2019-06-20T20:53:07.980Z,5.57
2019-06-20T20:55:35.129Z,5.53
2019-06-20T20:58:02.239Z,5.60
2019-06-20T21:00:41.776Z,6.90
2019-06-20T21:03:08.790Z,3.00
2019-06-20T21:05:50.664Z,3.60
2019-06-20T21:08:04.662Z,3.90
2019-06-20T21:10:31.710Z,7.17
2019-06-20T21:12:58.645Z,7.13
2019-06-20T21:15:25.835Z,6.57
2019-06-20T21:17:55.637Z,5.23
2019-06-20T21:20:21.500Z,4.23
2019-06-20T21:22:49.568Z,4.13
2019-06-20T21:25:16.795Z,7.47
2019-06-20T21:27:43.712Z,6.77
2019-06-20T21:30:11.102Z,3.20
2019-06-20T21:32:38.282Z,8.90
2019-06-20T21:35:06.461Z,10.10
2019-06-20T21:37:33.253Z,7.57
2019-06-20T21:40:00.363Z,4.13
2019-06-20T21:42:27.403Z,5.87
2019-06-20T21:44:54.402Z,4.70
2019-06-20T21:47:21.644Z,5.67
2019-06-20T21:49:48.665Z,10.67
2019-06-20T21:52:15.639Z,6.50
2019-06-20T21:54:42.637Z,5.17
2019-06-20T21:57:09.608Z,7.37
2019-06-20T21:59:36.519Z,8.30
2019-06-20T22:02:05.251Z,7.00
2019-06-20T22:04:32.134Z,10.40
2019-06-20T22:06:58.875Z,9.07
2019-06-20T22:09:25.926Z,6.73
2019-06-20T22:11:52.672Z,6.07
2019-06-20T22:14:19.422Z,10.73
2019-06-20T22:16:46.444Z,6.67
2019-06-20T22:19:13.554Z,6.97
2019-06-20T22:21:40.956Z,11.17
2019-06-20T22:24:08.175Z,7.43
2019-06-20T22:26:35.045Z,6.23
2019-06-20T22:29:01.985Z,8.53
2019-06-20T22:31:28.899Z,6.27
2019-06-20T22:33:56.380Z,7.23
2019-06-20T22:36:36.132Z,11.20
2019-06-20T22:38:52.014Z,10.83
2019-06-20T22:41:19.148Z,16.37
2019-06-20T22:43:46.009Z,10.20
2019-06-20T22:46:13.131Z,8.60
2019-06-20T22:48:39.983Z,13.30
2019-06-20T22:51:06.971Z,11.57
2019-06-20T22:53:34.126Z,10.33
2019-06-20T22:56:01.044Z,11.83
2019-06-20T22:58:28.232Z,12.20
2019-06-20T23:00:55.149Z,15.87
2019-06-20T23:03:22.011Z,20.17
2019-06-20T23:05:48.827Z,15.57
2019-06-20T23:08:15.741Z,11.37
2019-06-20T23:10:42.455Z,11.57
2019-06-20T23:13:09.236Z,13.33
2019-06-20T23:15:36.010Z,13.23
2019-06-20T23:18:02.942Z,11.47
2019-06-20T23:20:29.822Z,13.93
2019-06-20T23:22:56.721Z,15.33
2019-06-20T23:25:23.672Z,12.03
2019-06-20T23:27:50.585Z,17.83
2019-06-20T23:30:18.583Z,11.57
2019-06-20T23:32:45.569Z,14.70
2019-06-20T23:35:12.436Z,13.83
2019-06-20T23:37:39.410Z,12.13
2019-06-20T23:40:06.733Z,12.47
2019-06-20T23:42:33.382Z,14.80
2019-06-20T23:45:00.496Z,13.03
2019-06-20T23:47:27.459Z,16.77
2019-06-20T23:49:54.411Z,13.57
2019-06-20T23:52:23.191Z,18.33
2019-06-20T23:54:50.051Z,14.53
2019-06-20T23:57:16.922Z,14.80
2019-06-20T23:59:43.744Z,21.13
